createdAt,value
2017-11-26T00:00:47.049Z,0
2017-11-26T00:01:46.927Z,0
2017-11-26T00:02:46.927Z,0
2017-11-26T00:03:46.932Z,0
2017-11-26T00:04:46.640Z,0
2017-11-26T00:05:46.373Z,0
2017-11-26T00:06:46.829Z,0
2017-11-26T00:07:46.872Z,0
2017-11-26T00:08:46.882Z,0
2017-11-26T00:09:46.696Z,0
2017-11-26T00:10:46.587Z,0
2017-11-26T00:11:46.318Z,0
2017-11-26T00:12:46.566Z,0
2017-11-26T00:13:46.309Z,0
2017-11-26T00:14:46.288Z,0
2017-11-26T00:15:46.811Z,0
2017-11-26T00:16:46.529Z,0
2017-11-26T00:17:46.523Z,0
2017-11-26T00:18:46.508Z,0
2017-11-26T00:19:46.240Z,0
2017-11-26T00:20:46.508Z,0
2017-11-26T00:21:46.582Z,0
2017-11-26T00:22:46.738Z,0
2017-11-26T00:23:46.470Z,0
2017-11-26T00:24:46.714Z,0
2017-11-26T00:25:46.445Z,0
2017-11-26T00:26:46.441Z,0
2017-11-26T00:27:45.910Z,0
2017-11-26T00:28:46.675Z,0
2017-11-26T00:29:46.668Z,0
2017-11-26T00:30:46.138Z,0
2017-11-26T00:31:46.651Z,0
2017-11-26T00:32:46.647Z,0
2017-11-26T00:33:46.483Z,0
2017-11-26T00:34:45.581Z,0
2017-11-26T00:35:46.347Z,0
2017-11-26T00:36:46.343Z,0
2017-11-26T00:37:46.605Z,0
2017-11-26T00:38:46.458Z,0
2017-11-26T00:39:46.315Z,0
2017-11-26T00:40:46.305Z,0
2017-11-26T00:41:46.034Z,0
2017-11-26T00:42:46.536Z,0
2017-11-26T00:43:46.543Z,0
2017-11-26T00:44:46.278Z,0
2017-11-26T00:45:46.294Z,0
2017-11-26T00:46:46.187Z,0
2017-11-26T00:47:46.239Z,0
2017-11-26T00:48:45.706Z,0
2017-11-26T00:49:46.236Z,0
2017-11-26T00:50:46.503Z,0
2017-11-26T00:51:46.206Z,0
2017-11-26T00:52:46.444Z,0
2017-11-26T00:53:46.028Z,0
2017-11-26T00:54:46.170Z,0
2017-11-26T00:55:46.006Z,0
2017-11-26T00:56:46.261Z,0
2017-11-26T00:57:45.983Z,0
2017-11-26T00:58:46.130Z,0
2017-11-26T00:59:46.382Z,0
2017-11-26T01:00:46.112Z,0
2017-11-26T01:01:46.367Z,0
2017-11-26T01:02:46.099Z,0
2017-11-26T01:03:46.108Z,0
2017-11-26T01:04:46.359Z,0
2017-11-26T01:05:46.430Z,0
2017-11-26T01:06:46.077Z,0
2017-11-26T01:07:46.261Z,0
2017-11-26T01:08:46.043Z,0
2017-11-26T01:09:46.290Z,0
2017-11-26T01:10:46.292Z,0
2017-11-26T01:11:46.010Z,0
2017-11-26T01:12:45.998Z,0
2017-11-26T01:13:46.269Z,0
2017-11-26T01:14:46.253Z,0
2017-11-26T01:15:45.977Z,0
2017-11-26T01:16:45.443Z,0
2017-11-26T01:17:45.969Z,0
2017-11-26T01:18:46.051Z,0
2017-11-26T01:19:46.207Z,0
2017-11-26T01:20:46.192Z,0
2017-11-26T01:21:46.201Z,0
2017-11-26T01:22:46.191Z,0
2017-11-26T01:23:45.999Z,0
2017-11-26T01:24:45.634Z,0
2017-11-26T01:25:45.995Z,0
2017-11-26T01:26:46.159Z,0
2017-11-26T01:27:46.135Z,0
2017-11-26T01:28:46.213Z,0
2017-11-26T01:29:46.113Z,0
2017-11-26T01:30:45.573Z,0
2017-11-26T01:31:45.670Z,0
2017-11-26T01:32:45.567Z,0
2017-11-26T01:33:45.800Z,0
2017-11-26T01:34:46.095Z,0
2017-11-26T01:35:46.049Z,0
2017-11-26T01:36:45.782Z,0
2017-11-26T01:37:46.055Z,0
2017-11-26T01:38:45.774Z,0
2017-11-26T01:39:45.751Z,0
2017-11-26T01:40:45.764Z,0
2017-11-26T01:41:45.479Z,0
2017-11-26T01:42:45.562Z,0
2017-11-26T01:43:45.452Z,0
2017-11-26T01:44:45.708Z,0
2017-11-26T01:45:45.819Z,0
2017-11-26T01:46:45.946Z,0
2017-11-26T01:47:45.938Z,0
2017-11-26T01:48:45.919Z,0
2017-11-26T01:49:45.655Z,0
2017-11-26T01:50:45.744Z,0
2017-11-26T01:51:45.900Z,0
2017-11-26T01:52:45.646Z,0
2017-11-26T01:53:45.879Z,0
2017-11-26T01:54:45.867Z,0
2017-11-26T01:55:45.920Z,0
2017-11-26T01:56:45.854Z,0
2017-11-26T01:57:45.950Z,0
2017-11-26T01:58:45.709Z,0
2017-11-26T01:59:45.567Z,0
2017-11-26T02:00:45.559Z,0
2017-11-26T02:01:45.550Z,0
2017-11-26T02:02:45.741Z,0
2017-11-26T02:03:45.525Z,0
2017-11-26T02:04:45.782Z,0
2017-11-26T02:05:45.765Z,0
2017-11-26T02:06:45.244Z,0
2017-11-26T02:07:45.240Z,0
2017-11-26T02:08:45.214Z,0
2017-11-26T02:09:45.210Z,0
2017-11-26T02:10:45.458Z,0
2017-11-26T02:11:45.459Z,0
2017-11-26T02:12:45.704Z,0
2017-11-26T02:13:45.533Z,0
2017-11-26T02:14:45.274Z,0
2017-11-26T02:15:45.154Z,0
2017-11-26T02:16:45.397Z,0
2017-11-26T02:17:45.134Z,0
2017-11-26T02:18:45.380Z,0
2017-11-26T02:19:45.784Z,0
2017-11-26T02:20:45.120Z,0
2017-11-26T02:21:45.364Z,0
2017-11-26T02:22:45.604Z,0
2017-11-26T02:23:45.349Z,0
2017-11-26T02:24:45.170Z,0
2017-11-26T02:25:45.053Z,0
2017-11-26T02:26:45.581Z,0
2017-11-26T02:27:45.298Z,0
2017-11-26T02:28:45.653Z,0
2017-11-26T02:29:45.534Z,0
2017-11-26T02:30:45.278Z,0
2017-11-26T02:31:45.552Z,0
2017-11-26T02:32:45.265Z,0
2017-11-26T02:33:45.244Z,0
2017-11-26T02:34:45.506Z,0
2017-11-26T02:35:45.226Z,0
2017-11-26T02:36:45.489Z,0
2017-11-26T02:37:45.455Z,0
2017-11-26T02:38:45.190Z,0
2017-11-26T02:39:45.440Z,0
2017-11-26T02:40:45.299Z,0
2017-11-26T02:41:45.185Z,0
2017-11-26T02:42:45.428Z,0
2017-11-26T02:43:45.172Z,0
2017-11-26T02:44:45.405Z,0
2017-11-26T02:45:44.925Z,0
2017-11-26T02:46:45.380Z,0
2017-11-26T02:47:45.380Z,0
2017-11-26T02:48:44.836Z,0
2017-11-26T02:49:45.094Z,0
2017-11-26T02:50:45.544Z,0
2017-11-26T02:51:45.084Z,0
2017-11-26T02:52:45.166Z,0
2017-11-26T02:53:45.057Z,0
2017-11-26T02:54:45.056Z,0
2017-11-26T02:55:45.027Z,0
2017-11-26T02:56:45.021Z,0
2017-11-26T02:57:44.755Z,0
2017-11-26T02:58:45.258Z,0
2017-11-26T02:59:44.841Z,0
2017-11-26T03:00:44.718Z,0
2017-11-26T03:01:44.975Z,0
2017-11-26T03:02:45.232Z,0
2017-11-26T03:03:44.700Z,0
2017-11-26T03:04:44.945Z,0
2017-11-26T03:05:44.944Z,0
2017-11-26T03:06:44.768Z,0
2017-11-26T03:07:44.911Z,0
2017-11-26T03:08:45.192Z,0
2017-11-26T03:09:45.163Z,0
2017-11-26T03:10:44.882Z,0
2017-11-26T03:11:45.144Z,0
2017-11-26T03:12:44.348Z,0
2017-11-26T03:13:44.859Z,0
2017-11-26T03:14:45.113Z,0
2017-11-26T03:15:44.584Z,0
2017-11-26T03:16:45.183Z,0
2017-11-26T03:17:44.824Z,0
2017-11-26T03:18:44.551Z,0
2017-11-26T03:19:44.792Z,0
2017-11-26T03:20:45.051Z,0
2017-11-26T03:21:44.527Z,0
2017-11-26T03:22:44.616Z,0
2017-11-26T03:23:45.018Z,0
2017-11-26T03:24:44.750Z,0
2017-11-26T03:25:44.582Z,0
2017-11-26T03:26:45.037Z,0
2017-11-26T03:27:44.476Z,0
2017-11-26T03:28:44.816Z,0
2017-11-26T03:29:44.702Z,0
2017-11-26T03:30:44.981Z,0
2017-11-26T03:31:44.786Z,0
2017-11-26T03:32:44.676Z,0
2017-11-26T03:33:44.410Z,0
2017-11-26T03:34:44.011Z,0
2017-11-26T03:35:44.656Z,0
2017-11-26T03:36:44.999Z,0
2017-11-26T03:37:44.657Z,0
2017-11-26T03:38:44.625Z,0
2017-11-26T03:39:44.347Z,0
2017-11-26T03:40:44.618Z,0
2017-11-26T03:41:44.333Z,0
2017-11-26T03:42:44.953Z,0
2017-11-26T03:43:44.857Z,0
2017-11-26T03:44:44.302Z,0
2017-11-26T03:45:44.318Z,0
2017-11-26T03:46:44.292Z,0
2017-11-26T03:47:44.536Z,0
2017-11-26T03:48:44.784Z,0
2017-11-26T03:49:44.508Z,0
2017-11-26T03:50:44.514Z,0
2017-11-26T03:51:44.504Z,0
2017-11-26T03:52:44.485Z,0
2017-11-26T03:53:44.470Z,0
2017-11-26T03:54:44.751Z,0
2017-11-26T03:55:44.462Z,0
2017-11-26T03:56:44.452Z,0
2017-11-26T03:57:44.696Z,0
2017-11-26T03:58:44.698Z,0
2017-11-26T03:59:44.423Z,0
2017-11-26T04:00:44.678Z,0
2017-11-26T04:01:44.144Z,0
2017-11-26T04:02:44.657Z,0
2017-11-26T04:03:44.387Z,0
2017-11-26T04:04:44.639Z,0
2017-11-26T04:05:44.364Z,0
2017-11-26T04:06:44.624Z,0
2017-11-26T04:07:44.340Z,0
2017-11-26T04:08:44.340Z,0
2017-11-26T04:09:44.326Z,0
2017-11-26T04:10:44.575Z,0
2017-11-26T04:11:44.310Z,0
2017-11-26T04:12:44.566Z,0
2017-11-26T04:13:44.549Z,0
2017-11-26T04:14:44.018Z,0
2017-11-26T04:15:44.534Z,0
2017-11-26T04:16:44.261Z,0
2017-11-26T04:17:44.254Z,0
2017-11-26T04:18:44.524Z,0
2017-11-26T04:19:44.499Z,0
2017-11-26T04:20:44.225Z,0
2017-11-26T04:21:43.960Z,0
2017-11-26T04:22:44.572Z,0
2017-11-26T04:23:44.189Z,0
2017-11-26T04:24:44.443Z,0
2017-11-26T04:25:44.433Z,0
2017-11-26T04:26:44.433Z,0
2017-11-26T04:27:44.425Z,0
2017-11-26T04:28:43.884Z,0
2017-11-26T04:29:44.144Z,0
2017-11-26T04:30:43.609Z,0
2017-11-26T04:31:44.390Z,0
2017-11-26T04:32:44.113Z,0
2017-11-26T04:33:44.038Z,0
2017-11-26T04:34:44.354Z,0
2017-11-26T04:35:44.343Z,0
2017-11-26T04:36:44.340Z,0
2017-11-26T04:37:43.804Z,0
2017-11-26T04:38:44.414Z,0
2017-11-26T04:39:44.046Z,0
2017-11-26T04:40:44.287Z,0
2017-11-26T04:41:44.278Z,0
2017-11-26T04:42:43.234Z,0
2017-11-26T04:43:44.258Z,0
2017-11-26T04:44:43.735Z,0
2017-11-26T04:45:43.739Z,0
2017-11-26T04:46:44.240Z,0
2017-11-26T04:47:43.964Z,0
2017-11-26T04:48:43.705Z,0
2017-11-26T04:49:44.208Z,0
2017-11-26T04:50:43.939Z,0
2017-11-26T04:51:44.189Z,0
2017-11-26T04:52:43.660Z,0
2017-11-26T04:53:44.169Z,0
2017-11-26T04:54:44.173Z,0
2017-11-26T04:55:44.161Z,0
2017-11-26T04:56:44.157Z,0
2017-11-26T04:57:43.877Z,0
2017-11-26T04:58:44.135Z,0
2017-11-26T04:59:43.884Z,0
2017-11-26T05:00:43.946Z,0
2017-11-26T05:01:43.830Z,0
2017-11-26T05:02:43.925Z,0
2017-11-26T05:03:43.294Z,0
2017-11-26T05:04:44.072Z,0
2017-11-26T05:05:43.896Z,0
2017-11-26T05:06:44.172Z,0
2017-11-26T05:07:43.775Z,0
2017-11-26T05:08:43.763Z,0
2017-11-26T05:09:44.016Z,0
2017-11-26T05:10:43.491Z,0
2017-11-26T05:11:43.751Z,0
2017-11-26T05:12:43.725Z,0
2017-11-26T05:13:43.730Z,0
2017-11-26T05:14:43.718Z,0
2017-11-26T05:15:43.703Z,0
2017-11-26T05:16:43.694Z,0
2017-11-26T05:17:43.777Z,0
2017-11-26T05:18:44.030Z,0
2017-11-26T05:19:43.138Z,0
2017-11-26T05:20:44.014Z,0
2017-11-26T05:21:43.916Z,0
2017-11-26T05:22:43.633Z,0
2017-11-26T05:23:42.847Z,0
2017-11-26T05:24:43.107Z,0
2017-11-26T05:25:43.863Z,0
2017-11-26T05:26:43.850Z,0
2017-11-26T05:27:43.848Z,0
2017-11-26T05:28:43.935Z,0
2017-11-26T05:29:43.560Z,0
2017-11-26T05:30:43.824Z,0
2017-11-26T05:31:43.811Z,0
2017-11-26T05:32:43.796Z,0
2017-11-26T05:33:43.525Z,0
2017-11-26T05:34:43.874Z,0
2017-11-26T05:35:42.993Z,0
2017-11-26T05:36:43.498Z,0
2017-11-26T05:37:43.518Z,0
2017-11-26T05:38:43.483Z,0
2017-11-26T05:39:43.738Z,0
2017-11-26T05:40:43.737Z,0
2017-11-26T05:41:43.453Z,0
2017-11-26T05:42:43.438Z,0
2017-11-26T05:43:43.704Z,0
2017-11-26T05:44:43.694Z,0
2017-11-26T05:45:43.793Z,0
2017-11-26T05:46:43.675Z,0
2017-11-26T05:47:43.386Z,0
2017-11-26T05:48:43.664Z,0
2017-11-26T05:49:42.850Z,0
2017-11-26T05:50:43.364Z,0
2017-11-26T05:51:43.451Z,0
2017-11-26T05:52:43.199Z,0
2017-11-26T05:53:43.080Z,0
2017-11-26T05:54:43.326Z,0
2017-11-26T05:55:43.312Z,0
2017-11-26T05:56:43.317Z,0
2017-11-26T05:57:43.571Z,0
2017-11-26T05:58:43.125Z,0
2017-11-26T05:59:43.006Z,0
2017-11-26T06:00:43.517Z,0
2017-11-26T06:01:43.252Z,0
2017-11-26T06:02:43.253Z,0
2017-11-26T06:03:43.233Z,0
2017-11-26T06:04:43.478Z,0
2017-11-26T06:05:43.212Z,0
2017-11-26T06:06:43.213Z,0
2017-11-26T06:07:43.461Z,0
2017-11-26T06:08:43.024Z,0
2017-11-26T06:09:43.192Z,0
2017-11-26T06:10:43.424Z,0
2017-11-26T06:11:43.154Z,0
2017-11-26T06:12:43.510Z,0
2017-11-26T06:13:43.353Z,0
2017-11-26T06:14:42.880Z,0
2017-11-26T06:15:43.118Z,0
2017-11-26T06:16:43.367Z,0
2017-11-26T06:17:42.581Z,0
2017-11-26T06:18:43.355Z,0
2017-11-26T06:19:42.827Z,0
2017-11-26T06:20:43.117Z,0
2017-11-26T06:21:43.323Z,0
2017-11-26T06:22:43.057Z,0
2017-11-26T06:23:43.053Z,0
2017-11-26T06:24:43.286Z,0
2017-11-26T06:25:43.279Z,0
2017-11-26T06:26:43.274Z,0
2017-11-26T06:27:42.749Z,0
2017-11-26T06:28:42.730Z,0
2017-11-26T06:29:42.984Z,0
2017-11-26T06:30:43.090Z,0
2017-11-26T06:31:43.327Z,0
2017-11-26T06:32:42.891Z,0
2017-11-26T06:33:42.971Z,0
2017-11-26T06:34:42.956Z,0
2017-11-26T06:35:43.180Z,0
2017-11-26T06:36:43.203Z,0
2017-11-26T06:37:42.661Z,0
2017-11-26T06:38:42.999Z,0
2017-11-26T06:39:42.884Z,0
2017-11-26T06:40:42.922Z,0
2017-11-26T06:41:43.134Z,0
2017-11-26T06:42:42.893Z,0
2017-11-26T06:43:42.949Z,0
2017-11-26T06:44:43.093Z,0
2017-11-26T06:45:42.832Z,0
2017-11-26T06:46:42.559Z,0
2017-11-26T06:47:42.822Z,0
2017-11-26T06:48:42.904Z,0
2017-11-26T06:49:42.804Z,0
2017-11-26T06:50:42.781Z,0
2017-11-26T06:51:42.770Z,0
2017-11-26T06:52:42.768Z,0
2017-11-26T06:53:42.758Z,0
2017-11-26T06:54:43.009Z,0
2017-11-26T06:55:42.572Z,0
2017-11-26T06:56:42.729Z,0
2017-11-26T06:57:42.975Z,0
2017-11-26T06:58:42.961Z,0
2017-11-26T06:59:42.434Z,0
2017-11-26T07:00:42.948Z,0
2017-11-26T07:01:42.933Z,0
2017-11-26T07:02:42.425Z,0
2017-11-26T07:03:42.401Z,0
2017-11-26T07:04:42.906Z,0
2017-11-26T07:05:42.377Z,0
2017-11-26T07:06:42.992Z,0
2017-11-26T07:07:42.357Z,0
2017-11-26T07:08:42.606Z,0
2017-11-26T07:09:42.957Z,0
2017-11-26T07:10:42.854Z,0
2017-11-26T07:11:42.844Z,0
2017-11-26T07:12:42.309Z,0
2017-11-26T07:13:42.564Z,0
2017-11-26T07:14:42.555Z,0
2017-11-26T07:15:42.293Z,0
2017-11-26T07:16:42.536Z,0
2017-11-26T07:17:42.264Z,0
2017-11-26T07:18:42.252Z,0
2017-11-26T07:19:42.510Z,0
2017-11-26T07:20:42.498Z,0
2017-11-26T07:21:41.975Z,0
2017-11-26T07:22:42.216Z,0
2017-11-26T07:23:42.201Z,0
2017-11-26T07:24:42.746Z,0
2017-11-26T07:25:42.447Z,0
2017-11-26T07:26:42.438Z,0
2017-11-26T07:27:42.692Z,0
2017-11-26T07:28:42.513Z,0
2017-11-26T07:29:42.407Z,0
2017-11-26T07:30:42.143Z,0
2017-11-26T07:31:42.657Z,0
2017-11-26T07:32:42.396Z,0
2017-11-26T07:33:42.369Z,0
2017-11-26T07:34:42.666Z,0
2017-11-26T07:35:42.350Z,0
2017-11-26T07:36:42.597Z,5
2017-11-26T07:37:42.603Z,5
2017-11-26T07:38:42.590Z,5
2017-11-26T07:39:42.576Z,5
2017-11-26T07:40:42.406Z,5
2017-11-26T07:41:42.293Z,5
2017-11-26T07:42:42.025Z,5
2017-11-26T07:43:42.140Z,5
2017-11-26T07:44:42.552Z,5
2017-11-26T07:45:42.015Z,5
2017-11-26T07:46:42.507Z,5
2017-11-26T07:47:42.252Z,5
2017-11-26T07:48:42.487Z,5
2017-11-26T07:49:42.494Z,5
2017-11-26T07:50:42.478Z,5
2017-11-26T07:51:42.460Z,5
2017-11-26T07:52:41.929Z,5
2017-11-26T07:53:42.184Z,5
2017-11-26T07:54:42.433Z,5
2017-11-26T07:55:42.254Z,5
2017-11-26T07:56:42.247Z,5
2017-11-26T07:57:42.439Z,5
2017-11-26T07:58:42.134Z,5
2017-11-26T07:59:41.870Z,5
2017-11-26T08:00:42.375Z,5
2017-11-26T08:01:42.560Z,5
2017-11-26T08:02:42.095Z,5
2017-11-26T08:03:42.368Z,5
2017-11-26T08:04:42.078Z,10
2017-11-26T08:05:42.066Z,10
2017-11-26T08:06:41.801Z,5
2017-11-26T08:07:42.051Z,5
2017-11-26T08:08:42.034Z,5
2017-11-26T08:09:42.123Z,5
2017-11-26T08:10:42.289Z,5
2017-11-26T08:11:41.863Z,5
2017-11-26T08:12:42.283Z,5
2017-11-26T08:13:42.116Z,5
2017-11-26T08:14:41.979Z,5
2017-11-26T08:15:41.975Z,5
2017-11-26T08:16:41.443Z,5
2017-11-26T08:17:41.700Z,5
2017-11-26T08:18:42.062Z,5
2017-11-26T08:19:41.935Z,5
2017-11-26T08:20:41.678Z,5
2017-11-26T08:21:41.753Z,5
2017-11-26T08:22:41.913Z,5
2017-11-26T08:23:42.108Z,5
2017-11-26T08:24:41.625Z,5
2017-11-26T08:25:41.875Z,5
2017-11-26T08:26:42.150Z,5
2017-11-26T08:27:41.696Z,10
2017-11-26T08:28:42.110Z,10
2017-11-26T08:29:42.096Z,10
2017-11-26T08:30:41.831Z,10
2017-11-26T08:31:42.086Z,10
2017-11-26T08:32:41.815Z,10
2017-11-26T08:33:42.166Z,10
2017-11-26T08:34:42.160Z,10
2017-11-26T08:35:41.788Z,10
2017-11-26T08:36:42.040Z,10
2017-11-26T08:37:42.022Z,10
2017-11-26T08:38:41.863Z,10
2017-11-26T08:39:41.749Z,10
2017-11-26T08:40:41.737Z,10
2017-11-26T08:41:42.008Z,10
2017-11-26T08:42:41.716Z,10
2017-11-26T08:43:41.965Z,10
2017-11-26T08:44:41.704Z,10
2017-11-26T08:45:42.054Z,10
2017-11-26T08:46:41.690Z,10
2017-11-26T08:47:41.924Z,10
2017-11-26T08:48:41.669Z,10
2017-11-26T08:49:41.925Z,10
2017-11-26T08:50:41.899Z,10
2017-11-26T08:51:41.729Z,10
2017-11-26T08:52:41.361Z,10
2017-11-26T08:53:41.361Z,10
2017-11-26T08:54:41.341Z,10
2017-11-26T08:55:41.695Z,10
2017-11-26T08:56:41.577Z,10
2017-11-26T08:57:41.693Z,10
2017-11-26T08:58:41.666Z,10
2017-11-26T08:59:41.822Z,10
2017-11-26T09:00:41.561Z,10
2017-11-26T09:01:41.792Z,10
2017-11-26T09:02:41.884Z,10
2017-11-26T09:03:41.771Z,10
2017-11-26T09:04:41.519Z,10
2017-11-26T09:05:41.759Z,10
2017-11-26T09:06:41.227Z,10
2017-11-26T09:07:41.505Z,10
2017-11-26T09:08:41.475Z,10
2017-11-26T09:09:41.196Z,15
2017-11-26T09:10:41.467Z,15
2017-11-26T09:11:41.435Z,15
2017-11-26T09:12:41.535Z,15
2017-11-26T09:13:41.158Z,15
2017-11-26T09:14:41.154Z,15
2017-11-26T09:15:41.773Z,15
2017-11-26T09:16:41.653Z,15
2017-11-26T09:17:41.384Z,15
2017-11-26T09:18:41.388Z,15
2017-11-26T09:19:41.643Z,15
2017-11-26T09:20:41.387Z,15
2017-11-26T09:21:41.607Z,15
2017-11-26T09:22:41.336Z,15
2017-11-26T09:23:41.582Z,15
2017-11-26T09:24:41.580Z,15
2017-11-26T09:25:41.312Z,15
2017-11-26T09:26:41.697Z,15
2017-11-26T09:27:41.297Z,15
2017-11-26T09:28:41.538Z,15
2017-11-26T09:29:41.537Z,10
2017-11-26T09:30:41.110Z,10
2017-11-26T09:31:40.833Z,10
2017-11-26T09:32:40.989Z,10
2017-11-26T09:33:40.974Z,10
2017-11-26T09:34:41.487Z,10
2017-11-26T09:35:40.957Z,10
2017-11-26T09:36:41.206Z,10
2017-11-26T09:37:41.037Z,10
2017-11-26T09:38:41.447Z,10
2017-11-26T09:39:41.175Z,15
2017-11-26T09:40:41.176Z,15
2017-11-26T09:41:40.901Z,10
2017-11-26T09:42:41.509Z,15
2017-11-26T09:43:41.437Z,15
2017-11-26T09:44:40.616Z,15
2017-11-26T09:45:40.601Z,15
2017-11-26T09:46:41.399Z,15
2017-11-26T09:47:40.949Z,20
2017-11-26T09:48:40.838Z,20
2017-11-26T09:49:41.088Z,20
2017-11-26T09:50:40.819Z,20
2017-11-26T09:51:41.093Z,20
2017-11-26T09:52:41.161Z,20
2017-11-26T09:53:40.791Z,20
2017-11-26T09:54:41.048Z,15
2017-11-26T09:55:41.130Z,15
2017-11-26T09:56:40.758Z,20
2017-11-26T09:57:41.017Z,20
2017-11-26T09:58:41.255Z,20
2017-11-26T09:59:41.007Z,20
2017-11-26T10:00:41.246Z,20
2017-11-26T10:01:41.227Z,20
2017-11-26T10:02:40.709Z,20
2017-11-26T10:03:40.698Z,20
2017-11-26T10:04:40.686Z,20
2017-11-26T10:05:40.431Z,20
2017-11-26T10:06:41.032Z,15
2017-11-26T10:07:40.925Z,15
2017-11-26T10:08:41.186Z,15
2017-11-26T10:09:40.903Z,20
2017-11-26T10:10:41.293Z,20
2017-11-26T10:11:41.142Z,20
2017-11-26T10:12:41.127Z,20
2017-11-26T10:13:40.865Z,20
2017-11-26T10:14:40.861Z,20
2017-11-26T10:15:40.686Z,20
2017-11-26T10:16:41.105Z,20
2017-11-26T10:17:40.579Z,25
2017-11-26T10:18:40.555Z,25
2017-11-26T10:19:40.555Z,20
2017-11-26T10:20:40.799Z,25
2017-11-26T10:21:41.048Z,25
2017-11-26T10:22:41.156Z,25
2017-11-26T10:23:41.036Z,20
2017-11-26T10:24:40.766Z,20
2017-11-26T10:25:39.970Z,20
2017-11-26T10:26:41.008Z,20
2017-11-26T10:27:41.025Z,20
2017-11-26T10:28:40.201Z,25
2017-11-26T10:29:40.715Z,25
2017-11-26T10:30:40.963Z,25
2017-11-26T10:31:40.799Z,25
2017-11-26T10:32:40.421Z,25
2017-11-26T10:33:40.778Z,20
2017-11-26T10:34:40.418Z,20
2017-11-26T10:35:40.709Z,20
2017-11-26T10:36:40.487Z,20
2017-11-26T10:37:40.735Z,20
2017-11-26T10:38:40.630Z,20
2017-11-26T10:39:40.971Z,20
2017-11-26T10:40:40.608Z,20
2017-11-26T10:41:40.360Z,20
2017-11-26T10:42:40.604Z,20
2017-11-26T10:43:40.327Z,20
2017-11-26T10:44:40.827Z,20
2017-11-26T10:45:40.298Z,20
2017-11-26T10:46:40.812Z,20
2017-11-26T10:47:40.546Z,25
2017-11-26T10:48:40.642Z,25
2017-11-26T10:49:40.629Z,25
2017-11-26T10:50:40.261Z,25
2017-11-26T10:51:40.507Z,25
2017-11-26T10:52:40.241Z,25
2017-11-26T10:53:40.750Z,25
2017-11-26T10:54:40.485Z,25
2017-11-26T10:55:40.482Z,25
2017-11-26T10:56:40.208Z,25
2017-11-26T10:57:40.196Z,25
2017-11-26T10:58:40.706Z,25
2017-11-26T10:59:40.538Z,25
2017-11-26T11:00:40.437Z,25
2017-11-26T11:01:40.151Z,25
2017-11-26T11:02:40.145Z,25
2017-11-26T11:03:40.394Z,25
2017-11-26T11:04:40.654Z,25
2017-11-26T11:05:40.647Z,25
2017-11-26T11:06:40.370Z,25
2017-11-26T11:07:40.201Z,25
2017-11-26T11:08:40.110Z,25
2017-11-26T11:09:40.609Z,20
2017-11-26T11:10:40.327Z,20
2017-11-26T11:11:40.586Z,20
2017-11-26T11:12:40.576Z,25
2017-11-26T11:13:40.304Z,25
2017-11-26T11:14:40.297Z,20
2017-11-26T11:15:40.647Z,25
2017-11-26T11:16:40.528Z,25
2017-11-26T11:17:40.627Z,25
2017-11-26T11:18:40.257Z,25
2017-11-26T11:19:40.256Z,25
2017-11-26T11:20:40.491Z,25
2017-11-26T11:21:40.335Z,25
2017-11-26T11:22:39.957Z,25
2017-11-26T11:23:40.201Z,30
2017-11-26T11:24:40.472Z,30
2017-11-26T11:25:40.444Z,25
2017-11-26T11:26:39.927Z,25
2017-11-26T11:27:40.439Z,25
2017-11-26T11:28:40.166Z,25
2017-11-26T11:29:40.443Z,25
2017-11-26T11:30:40.134Z,25
2017-11-26T11:31:39.877Z,30
2017-11-26T11:32:39.875Z,30
2017-11-26T11:33:40.118Z,25
2017-11-26T11:34:39.839Z,25
2017-11-26T11:35:40.124Z,30
2017-11-26T11:36:40.081Z,30
2017-11-26T11:37:40.170Z,30
2017-11-26T11:38:39.812Z,30
2017-11-26T11:39:40.048Z,30
2017-11-26T11:40:39.540Z,30
2017-11-26T11:41:40.134Z,30
2017-11-26T11:42:40.278Z,35
2017-11-26T11:43:39.855Z,35
2017-11-26T11:44:40.265Z,35
2017-11-26T11:45:39.998Z,35
2017-11-26T11:46:40.257Z,35
2017-11-26T11:47:40.077Z,30
2017-11-26T11:48:39.979Z,30
2017-11-26T11:49:40.208Z,30
2017-11-26T11:50:39.946Z,30
2017-11-26T11:51:39.678Z,30
2017-11-26T11:52:39.941Z,30
2017-11-26T11:53:39.952Z,25
2017-11-26T11:54:40.266Z,30
2017-11-26T11:55:40.174Z,30
2017-11-26T11:56:39.631Z,30
2017-11-26T11:57:39.668Z,30
2017-11-26T11:58:40.160Z,25
2017-11-26T11:59:39.860Z,20
2017-11-26T12:00:39.857Z,20
2017-11-26T12:01:40.104Z,20
2017-11-26T12:02:39.573Z,15
2017-11-26T12:03:40.191Z,15
2017-11-26T12:04:40.093Z,20
2017-11-26T12:05:39.802Z,25
2017-11-26T12:06:40.057Z,25
2017-11-26T12:07:39.521Z,25
2017-11-26T12:08:39.872Z,25
2017-11-26T12:09:40.035Z,25
2017-11-26T12:10:40.010Z,20
2017-11-26T12:11:40.001Z,20
2017-11-26T12:12:39.475Z,20
2017-11-26T12:13:39.211Z,20
2017-11-26T12:14:39.723Z,15
2017-11-26T12:15:40.065Z,15
2017-11-26T12:16:39.434Z,20
2017-11-26T12:17:39.169Z,20
2017-11-26T12:18:39.515Z,15
2017-11-26T12:19:39.146Z,15
2017-11-26T12:20:39.751Z,15
2017-11-26T12:21:39.131Z,15
2017-11-26T12:22:39.117Z,15
2017-11-26T12:23:39.727Z,15
2017-11-26T12:24:39.880Z,15
2017-11-26T12:25:39.609Z,15
2017-11-26T12:26:39.076Z,15
2017-11-26T12:27:39.337Z,15
2017-11-26T12:28:39.419Z,15
2017-11-26T12:29:39.842Z,15
2017-11-26T12:30:39.924Z,20
2017-11-26T12:31:39.544Z,15
2017-11-26T12:32:39.283Z,15
2017-11-26T12:33:39.789Z,15
2017-11-26T12:34:39.524Z,15
2017-11-26T12:35:39.618Z,15
2017-11-26T12:36:39.496Z,20
2017-11-26T12:37:39.761Z,20
2017-11-26T12:38:39.224Z,20
2017-11-26T12:39:39.757Z,20
2017-11-26T12:40:39.817Z,20
2017-11-26T12:41:39.188Z,20
2017-11-26T12:42:39.436Z,20
2017-11-26T12:43:39.182Z,25
2017-11-26T12:44:39.159Z,25
2017-11-26T12:45:39.442Z,25
2017-11-26T12:46:39.163Z,30
2017-11-26T12:47:38.711Z,20
2017-11-26T12:48:39.383Z,15
2017-11-26T12:49:39.376Z,15
2017-11-26T12:50:39.620Z,15
2017-11-26T12:51:39.086Z,15
2017-11-26T12:52:39.084Z,20
2017-11-26T12:53:39.594Z,25
2017-11-26T12:54:39.594Z,35
2017-11-26T12:55:39.578Z,35
2017-11-26T12:56:39.043Z,35
2017-11-26T12:57:39.551Z,30
2017-11-26T12:58:39.673Z,30
2017-11-26T12:59:39.634Z,25
2017-11-26T13:00:39.559Z,25
2017-11-26T13:01:39.260Z,25
2017-11-26T13:02:38.989Z,20
2017-11-26T13:03:39.074Z,20
2017-11-26T13:04:39.322Z,15
2017-11-26T13:05:39.214Z,20
2017-11-26T13:06:39.210Z,20
2017-11-26T13:07:38.931Z,25
2017-11-26T13:08:39.447Z,30
2017-11-26T13:09:39.648Z,30
2017-11-26T13:10:38.915Z,30
2017-11-26T13:11:38.906Z,35
2017-11-26T13:12:38.990Z,25
2017-11-26T13:13:39.139Z,20
2017-11-26T13:14:39.325Z,20
2017-11-26T13:15:39.373Z,20
2017-11-26T13:16:39.107Z,25
2017-11-26T13:17:39.382Z,20
2017-11-26T13:18:38.308Z,20
2017-11-26T13:19:39.085Z,30
2017-11-26T13:20:39.077Z,30
2017-11-26T13:21:38.807Z,30
2017-11-26T13:22:39.063Z,30
2017-11-26T13:23:39.034Z,25
2017-11-26T13:24:39.027Z,20
2017-11-26T13:25:39.273Z,15
2017-11-26T13:26:39.288Z,20
2017-11-26T13:27:39.471Z,20
2017-11-26T13:28:39.259Z,20
2017-11-26T13:29:38.812Z,20
2017-11-26T13:30:39.234Z,25
2017-11-26T13:31:38.957Z,20
2017-11-26T13:32:38.960Z,20
2017-11-26T13:33:38.420Z,20
2017-11-26T13:34:38.670Z,20
2017-11-26T13:35:39.205Z,15
2017-11-26T13:36:38.918Z,25
2017-11-26T13:37:38.638Z,25
2017-11-26T13:38:38.889Z,25
2017-11-26T13:39:38.881Z,20
2017-11-26T13:40:38.866Z,25
2017-11-26T13:41:38.612Z,25
2017-11-26T13:42:38.797Z,30
2017-11-26T13:43:38.855Z,35
2017-11-26T13:44:38.827Z,35
2017-11-26T13:45:38.820Z,30
2017-11-26T13:46:38.549Z,30
2017-11-26T13:47:38.897Z,30
2017-11-26T13:48:39.054Z,25
2017-11-26T13:49:38.526Z,25
2017-11-26T13:50:38.774Z,25
2017-11-26T13:51:39.033Z,30
2017-11-26T13:52:39.030Z,25
2017-11-26T13:53:38.745Z,25
2017-11-26T13:54:38.734Z,25
2017-11-26T13:55:38.994Z,25
2017-11-26T13:56:38.715Z,20
2017-11-26T13:57:38.721Z,20
2017-11-26T13:58:38.686Z,15
2017-11-26T13:59:38.779Z,10
2017-11-26T14:00:38.933Z,10
2017-11-26T14:01:38.404Z,10
2017-11-26T14:02:38.906Z,10
2017-11-26T14:03:38.382Z,10
2017-11-26T14:04:39.001Z,10
2017-11-26T14:05:38.360Z,15
2017-11-26T14:06:38.872Z,15
2017-11-26T14:07:38.601Z,15
2017-11-26T14:08:38.590Z,15
2017-11-26T14:09:38.089Z,15
2017-11-26T14:10:38.934Z,10
2017-11-26T14:11:38.304Z,10
2017-11-26T14:12:38.558Z,10
2017-11-26T14:13:38.903Z,10
2017-11-26T14:14:38.294Z,15
2017-11-26T14:15:38.879Z,15
2017-11-26T14:16:38.769Z,15
2017-11-26T14:17:38.505Z,15
2017-11-26T14:18:38.503Z,15
2017-11-26T14:19:38.745Z,20
2017-11-26T14:20:38.219Z,25
2017-11-26T14:21:38.304Z,25
2017-11-26T14:22:38.453Z,25
2017-11-26T14:23:38.840Z,25
2017-11-26T14:24:38.437Z,25
2017-11-26T14:25:38.684Z,20
2017-11-26T14:26:38.684Z,25
2017-11-26T14:27:38.665Z,20
2017-11-26T14:28:38.394Z,20
2017-11-26T14:29:38.382Z,20
2017-11-26T14:30:38.733Z,25
2017-11-26T14:31:38.620Z,25
2017-11-26T14:32:38.096Z,20
2017-11-26T14:33:38.088Z,25